Time;durP1;ratioP1;P1;durP2;ratioP2;P2;SDS_P1;SDS_P2;PMS_P1;PMS_P2;Temp;Humidity;BMP_temperature;BMP_pressure;BME280_temperature;BME280_humidity;BME280_pressure;Samples;Min_cycle;Max_cycle;Signal;HPM_P1;HPM_P2
2022/03/12 00:00:51;;;;;;;82.72;44.90;;;13.60;2201.60;;;;;;4936372;29;20027;-85
2022/03/12 00:06:50;;;;;;;69.75;39.60;;;13.50;2201.60;;;;;;4897512;29;20072;-86
2022/03/12 00:09:53;;;;;;;63.28;37.50;;;38.40;2201.60;;;;;;4881598;29;20509;-85
2022/03/12 00:12:30;;;;;;;66.85;33.45;;;38.40;2201.60;;;;;;4873661;29;20068;-85
2022/03/12 00:18:25;;;;;;;63.08;34.97;;;38.50;2201.60;;;;;;4928071;29;20136;-85
2022/03/12 01:12:07;;;;;;;24.42;15.02;;;13.40;2201.60;;;;;;4875913;28;20116;-81
2022/03/12 01:14:45;;;;;;;24.60;16.02;;;12.90;2201.60;;;;;;4971110;28;20030;-81
2022/03/12 01:24:00;;;;;;;41.97;23.27;;;13.30;2201.60;;;;;;4955114;29;20046;-81
2022/03/12 01:26:48;;;;;;;46.97;22.58;;;13.50;2201.60;;;;;;4953763;29;20033;-82
2022/03/12 01:29:28;;;;;;;39.53;19.98;;;0.00;2201.60;;;;;;4953253;29;20051;-82
2022/03/12 01:31:55;;;;;;;43.15;26.98;;;13.50;2201.60;;;;;;4951373;29;20027;-86
2022/03/12 01:34:21;;;;;;;51.58;29.05;;;13.50;2201.60;;;;;;4937360;29;20034;-85
2022/03/12 01:36:51;;;;;;;53.33;34.28;;;13.70;2201.60;;;;;;4937413;29;20020;-85
2022/03/12 01:39:17;;;;;;;54.35;30.33;;;13.70;2201.60;;;;;;4937358;29;20027;-86
2022/03/12 01:41:53;;;;;;;47.78;27.50;;;13.70;2201.60;;;;;;4937294;29;20411;-85
2022/03/12 01:44:22;;;;;;;44.88;24.23;;;13.70;2201.60;;;;;;4937199;29;20023;-84
2022/03/12 01:46:53;;;;;;;42.78;25.33;;;38.50;2201.60;;;;;;4943141;28;20031;-86
2022/03/12 01:49:26;;;;;;;51.42;29.85;;;38.40;2201.60;;;;;;4957417;28;20094;-86
2022/03/12 01:57:51;;;;;;;32.45;19.13;;;38.60;2201.60;;;;;;4963333;28;20146;-85
2022/03/12 02:09:15;;;;;;;40.88;19.70;;;39.00;2201.60;;;;;;4978075;28;20033;-84
2022/03/12 02:53:56;;;;;;;106.72;48.40;;;64.40;2201.60;;;;;;4922334;29;20028;-79
2022/03/12 03:07:39;;;;;;;65.10;31.35;;;64.50;2201.60;;;;;;4921716;29;20092;-79
2022/03/12 03:21:31;;;;;;;71.38;32.90;;;64.50;2201.60;;;;;;4830204;29;20036;-78
2022/03/12 03:24:54;;;;;;;47.97;28.73;;;64.40;2201.60;;;;;;4732842;30;20060;-79
2022/03/12 03:28:29;;;;;;;43.83;23.95;;;64.60;2201.60;;;;;;4689606;30;20019;-79
2022/03/12 03:42:42;;;;;;;32.85;18.77;;;64.80;2201.60;;;;;;4958284;29;20046;-79
2022/03/12 03:46:08;;;;;;;33.42;18.65;;;64.90;2201.60;;;;;;4898659;29;20033;-80
2022/03/12 03:53:04;;;;;;;45.78;22.02;;;64.90;2201.60;;;;;;4938561;29;20047;-79
2022/03/12 03:59:58;;;;;;;60.80;28.58;;;89.90;2176.00;;;;;;4916849;29;20514;-79
2022/03/12 04:42:44;;;;;;;;;;;;;;;;;;;;;
2022/03/12 05:13:13;;;;;;;;;;;;;;;;;;;;;
2022/03/12 05:46:22;;;;;;;39.17;21.10;;;90.50;2176.00;;;;;;4818222;29;20025;-78
2022/03/12 06:03:39;;;;;;;46.03;23.90;;;90.30;2176.00;;;;;;4895068;29;20057;-79
2022/03/12 06:07:24;;;;;;;;;;;;;;;;;;;;;
2022/03/12 08:07:24;;;;;;;;;;;;;;;;;;;;;
2022/03/12 08:10:06;;;;;;;37.90;24.48;;;0.40;2201.60;;;;;;4975561;28;20022;-81
2022/03/12 08:12:35;;;;;;;41.67;24.88;;;0.50;2201.60;;;;;;4957895;28;20058;-82
2022/03/12 08:15:07;;;;;;;41.00;23.65;;;0.60;2201.60;;;;;;4958044;28;20110;-80
2022/03/12 08:31:28;;;;;;;38.25;25.38;;;25.60;2201.60;;;;;;4974885;28;20572;-84
2022/03/12 08:37:34;;;;;;;63.15;34.72;;;26.00;2201.60;;;;;;4975266;28;20029;-82
2022/03/12 08:40:49;;;;;;;62.70;35.10;;;26.10;2201.60;;;;;;4958212;28;20031;-86
2022/03/12 08:43:24;;;;;;;44.53;27.55;;;26.30;2201.60;;;;;;4957976;28;20364;-83
2022/03/12 08:45:53;;;;;;;41.83;27.40;;;26.40;2201.60;;;;;;4958192;28;20054;-80
2022/03/12 08:48:19;;;;;;;40.00;26.30;;;26.20;2201.60;;;;;;4957396;28;20487;-82
2022/03/12 08:50:46;;;;;;;62.53;37.78;;;26.30;2201.60;;;;;;4957586;28;20114;-83
2022/03/12 08:53:12;;;;;;;60.97;37.08;;;26.30;2201.60;;;;;;4957588;28;20111;-81
2022/03/12 08:55:39;;;;;;;77.88;44.90;;;26.20;2201.60;;;;;;4957575;28;20038;-83
2022/03/12 08:58:05;;;;;;;81.03;44.95;;;26.30;2201.60;;;;;;4957808;28;20117;-84
2022/03/12 09:00:31;;;;;;;68.88;40.28;;;26.20;2201.60;;;;;;4957501;28;20125;-82
2022/03/12 09:02:58;;;;;;;62.50;37.58;;;51.20;2227.20;;;;;;4957579;28;20029;-82
2022/03/12 09:05:25;;;;;;;56.85;32.63;;;26.30;2201.60;;;;;;4957835;28;20475;-83
2022/03/12 09:07:52;;;;;;;60.42;32.80;;;26.20;2201.60;;;;;;4957849;28;20023;-83
2022/03/12 09:10:20;;;;;;;67.45;35.67;;;26.30;2201.60;;;;;;4957292;28;20027;-82
2022/03/12 09:12:47;;;;;;;81.72;42.63;;;26.40;2201.60;;;;;;4958124;28;20373;-83
2022/03/12 09:15:13;;;;;;;90.00;45.03;;;51.20;2227.20;;;;;;4963312;28;20023;-83
2022/03/12 09:17:40;;;;;;;52.88;27.88;;;26.40;2201.60;;;;;;4963835;28;20058;-84
2022/03/12 09:20:08;;;;;;;35.38;21.65;;;51.20;2227.20;;;;;;4964243;28;20044;-86
2022/03/12 09:22:34;;;;;;;45.20;26.05;;;26.50;2201.60;;;;;;4964231;28;20033;-83
2022/03/12 09:25:02;;;;;;;60.03;35.17;;;51.40;2227.20;;;;;;4963748;28;20046;-83
2022/03/12 09:27:28;;;;;;;39.30;23.90;;;51.50;2227.20;;;;;;4964101;28;20472;-83
2022/03/12 09:29:54;;;;;;;32.40;21.67;;;51.60;2227.20;;;;;;4963988;28;20376;-84
2022/03/12 09:32:20;;;;;;;33.13;19.30;;;51.80;2227.20;;;;;;4963523;28;20035;-79
2022/03/12 09:34:46;;;;;;;32.75;22.52;;;51.80;2227.20;;;;;;4963848;28;20026;-81
2022/03/12 09:37:12;;;;;;;29.73;20.83;;;51.80;2227.20;;;;;;4980545;28;20113;-79
2022/03/12 09:39:39;;;;;;;27.05;17.02;;;52.00;2227.20;;;;;;4963722;28;20030;-81
2022/03/12 09:42:07;;;;;;;25.10;16.25;;;52.10;2227.20;;;;;;4981086;28;20022;-79
2022/03/12 09:44:33;;;;;;;31.45;20.90;;;52.10;2227.20;;;;;;4963290;28;20514;-82
2022/03/12 09:46:59;;;;;;;38.13;25.13;;;76.80;2227.20;;;;;;4963662;28;20030;-79
2022/03/12 09:49:25;;;;;;;27.42;18.83;;;77.10;2227.20;;;;;;4963520;28;20030;-79
2022/03/12 09:51:51;;;;;;;26.10;17.50;;;77.00;2227.20;;;;;;4963464;28;20023;-79
2022/03/12 09:54:18;;;;;;;28.75;17.60;;;77.00;2227.20;;;;;;4963586;28;20029;-80
2022/03/12 09:56:45;;;;;;;35.08;19.60;;;77.00;2227.20;;;;;;4963571;28;20034;-79
2022/03/12 09:59:11;;;;;;;71.63;42.33;;;77.20;2227.20;;;;;;4963062;28;20047;-79
2022/03/12 10:01:37;;;;;;;41.83;27.15;;;77.00;2176.00;;;;;;4963640;28;20113;-81
2022/03/12 10:04:03;;;;;;;26.02;17.88;;;77.20;2227.20;;;;;;4963555;28;20166;-79
2022/03/12 10:06:31;;;;;;;46.88;29.80;;;77.10;2227.20;;;;;;4980558;28;20380;-81
2022/03/12 10:08:57;;;;;;;31.42;19.50;;;77.10;2201.60;;;;;;4980826;28;20069;-82
2022/03/12 10:11:24;;;;;;;42.15;25.67;;;77.20;2227.20;;;;;;4963256;28;20078;-82
2022/03/12 10:13:50;;;;;;;40.97;28.60;;;77.40;2227.20;;;;;;4963171;28;20027;-81
2022/03/12 10:16:18;;;;;;;37.33;25.00;;;77.70;2227.20;;;;;;4980505;28;20025;-80
2022/03/12 10:18:45;;;;;;;50.53;29.27;;;102.50;2227.20;;;;;;4963390;28;20074;-81
2022/03/12 10:21:11;;;;;;;31.98;19.98;;;102.60;2201.60;;;;;;4980521;28;20052;-81
2022/03/12 10:23:37;;;;;;;39.17;24.85;;;102.50;2150.40;;;;;;4963239;28;20457;-79
2022/03/12 10:26:03;;;;;;;25.73;17.17;;;102.80;2201.60;;;;;;4977726;28;20062;-80
2022/03/12 10:28:34;;;;;;;34.00;20.45;;;102.70;2073.60;;;;;;4960150;28;20417;-81
2022/03/12 10:31:04;;;;;;;15.70;11.77;;;102.80;2073.60;;;;;;4960180;28;20034;-81
2022/03/12 10:33:30;;;;;;;23.52;14.98;;;102.50;2022.40;;;;;;4959905;28;20033;-81
2022/03/12 10:36:10;;;;;;;29.65;16.27;;;102.60;2073.60;;;;;;4960102;28;20026;-81
2022/03/12 10:38:48;;;;;;;23.90;14.07;;;102.40;2124.80;;;;;;4977478;28;20420;-80
2022/03/12 10:41:14;;;;;;;28.92;17.40;;;77.70;2048.00;;;;;;4984213;28;20043;-77
2022/03/12 10:43:49;;;;;;;35.83;22.65;;;102.40;2048.00;;;;;;4985257;28;20011;-77
2022/03/12 10:46:27;;;;;;;36.03;21.60;;;102.40;2124.80;;;;;;4978622;28;20198;-82
2022/03/12 10:48:57;;;;;;;19.67;12.82;;;102.60;2099.20;;;;;;4960254;28;20023;-77
2022/03/12 10:51:38;;;;;;;20.83;14.20;;;102.60;2022.40;;;;;;4959843;28;20027;-78
2022/03/12 10:54:08;;;;;;;32.67;19.33;;;102.50;2048.00;;;;;;4959682;28;20113;-78
2022/03/12 10:56:48;;;;;;;24.05;14.43;;;102.50;2073.60;;;;;;4976932;28;20026;-79
2022/03/12 10:59:19;;;;;;;32.90;20.00;;;102.60;2022.40;;;;;;4959520;28;20042;-85
2022/03/12 11:01:50;;;;;;;29.48;17.67;;;102.50;2073.60;;;;;;4959630;28;20146;-84
2022/03/12 11:04:29;;;;;;;40.63;21.85;;;102.50;1996.80;;;;;;4959549;28;20026;-81
2022/03/12 11:06:58;;;;;;;43.97;26.67;;;102.50;2022.40;;;;;;4959860;28;20029;-81
2022/03/12 11:09:39;;;;;;;32.65;18.83;;;102.70;2048.00;;;;;;4959217;28;20027;-82
2022/03/12 11:12:30;;;;;;;22.55;14.93;;;102.80;2048.00;;;;;;4976743;28;20448;-80
2022/03/12 11:15:05;;;;;;;61.35;23.02;;;103.00;2022.40;;;;;;4977207;28;20103;-81
2022/03/12 11:20:58;;;;;;;24.17;15.30;;;128.30;1945.60;;;;;;4873242;28;20107;-80
2022/03/12 11:23:27;;;;;;;20.90;13.45;;;128.80;1920.00;;;;;;4959458;28;20372;-82
2022/03/12 11:25:59;;;;;;;25.67;15.75;;;153.60;1817.60;;;;;;4959396;28;20049;-84
2022/03/12 11:28:29;;;;;;;26.70;17.60;;;128.30;1894.40;;;;;;4959436;28;20798;-82
2022/03/12 11:30:55;;;;;;;23.45;14.88;;;128.40;1894.40;;;;;;4958983;28;20034;-79
2022/03/12 11:34:04;;;;;;;19.58;13.80;;;128.80;1868.80;;;;;;4959432;28;20368;-81
2022/03/12 11:37:23;;;;;;;18.27;12.77;;;128.80;1894.40;;;;;;4954368;28;20033;-83
2022/03/12 11:46:40;;;;;;;18.70;13.27;;;154.20;1868.80;;;;;;4976551;28;20173;-83
2022/03/12 11:49:32;;;;;;;20.40;14.07;;;154.50;1766.40;;;;;;4958995;28;20395;-82
2022/03/12 11:52:11;;;;;;;24.35;16.45;;;179.40;1817.60;;;;;;4958986;28;20066;-84
2022/03/12 11:54:49;;;;;;;26.00;16.80;;;179.80;1766.40;;;;;;4967694;28;20058;-82
2022/03/12 11:57:35;;;;;;;34.90;24.05;;;180.00;1766.40;;;;;;4964156;28;20035;-81
2022/03/12 12:00:05;;;;;;;27.83;17.10;;;205.10;1766.40;;;;;;4975029;28;20122;-82
2022/03/12 12:02:33;;;;;;;23.50;15.15;;;205.20;1689.60;;;;;;4974836;28;20117;-79
2022/03/12 12:05:11;;;;;;;21.80;13.70;;;205.30;1664.00;;;;;;4975686;28;20030;-77
2022/03/12 12:07:39;;;;;;;17.92;12.32;;;205.40;1638.40;;;;;;4976105;28;20075;-83
2022/03/12 12:10:10;;;;;;;33.88;16.88;;;205.70;1664.00;;;;;;4975045;28;20035;-82
2022/03/12 12:12:36;;;;;;;18.35;13.02;;;205.60;1664.00;;;;;;4974695;28;20051;-79
2022/03/12 12:15:05;;;;;;;25.55;14.13;;;205.70;1612.80;;;;;;4974940;28;20019;-82
2022/03/12 12:17:36;;;;;;;23.50;16.30;;;230.50;1664.00;;;;;;4975959;28;20445;-83
2022/03/12 12:20:03;;;;;;;14.23;10.20;;;230.60;1638.40;;;;;;4974568;28;20026;-83
2022/03/12 12:22:29;;;;;;;29.90;17.17;;;205.60;1587.20;;;;;;4974754;28;20133;-81
2022/03/12 12:25:01;;;;;;;14.60;10.05;;;205.70;1612.80;;;;;;4974447;28;20528;-80
2022/03/12 12:27:41;;;;;;;16.10;10.75;;;205.70;1638.40;;;;;;4975253;28;20030;-82
2022/03/12 12:30:09;;;;;;;18.88;12.68;;;230.70;1664.00;;;;;;4974979;28;20034;-84
2022/03/12 12:32:45;;;;;;;26.02;18.42;;;231.00;1638.40;;;;;;4974800;28;20026;-84
2022/03/12 12:35:14;;;;;;;17.45;11.80;;;231.20;1638.40;;;;;;4974828;28;20034;-80
2022/03/12 12:37:49;;;;;;;26.23;16.80;;;231.00;1612.80;;;;;;4975913;28;20026;-84
2022/03/12 12:40:36;;;;;;;15.63;11.48;;;230.80;1638.40;;;;;;4974505;28;20030;-82
2022/03/12 12:43:12;;;;;;;16.33;10.02;;;230.60;1561.60;;;;;;4974770;28;20054;-85
2022/03/12 12:45:53;;;;;;;11.60;8.90;;;230.70;1587.20;;;;;;4974631;28;20022;-82
2022/03/12 12:48:33;;;;;;;17.85;13.00;;;231.20;1612.80;;;;;;4974025;28;20033;-84
2022/03/12 12:51:11;;;;;;;21.13;14.52;;;231.10;1587.20;;;;;;4974311;28;20027;-79
2022/03/12 12:53:38;;;;;;;16.80;10.98;;;256.10;1536.00;;;;;;4975459;28;20029;-83
2022/03/12 12:56:42;;;;;;;17.23;11.32;;;256.00;1587.20;;;;;;4974462;28;20073;-82
2022/03/12 12:59:13;;;;;;;24.95;16.40;;;256.10;1561.60;;;;;;4977517;28;20046;-85
2022/03/12 13:01:41;;;;;;;26.63;17.65;;;256.10;1536.00;;;;;;4976773;28;20027;-82
2022/03/12 13:04:12;;;;;;;17.27;11.32;;;256.50;1561.60;;;;;;4977297;28;20022;-83
2022/03/12 13:06:38;;;;;;;19.75;12.65;;;256.50;1536.00;;;;;;4977206;28;20026;-82
2022/03/12 13:09:23;;;;;;;16.95;10.18;;;256.30;1484.80;;;;;;4978649;28;20077;-83
2022/03/12 13:11:49;;;;;;;21.00;14.52;;;256.40;1484.80;;;;;;4978525;28;20033;-81
2022/03/12 13:14:39;;;;;;;14.57;10.60;;;256.50;1484.80;;;;;;4977007;28;20018;-81
2022/03/12 13:17:06;;;;;;;22.27;15.15;;;256.60;1561.60;;;;;;4976911;28;20058;-78
2022/03/12 13:19:35;;;;;;;17.30;13.15;;;256.50;1510.40;;;;;;4993895;28;20069;-79
2022/03/12 13:22:04;;;;;;;27.90;18.35;;;256.50;1536.00;;;;;;4976665;28;20440;-80
2022/03/12 13:25:01;;;;;;;14.85;11.18;;;256.50;1484.80;;;;;;4980964;28;20027;-83
2022/03/12 13:28:03;;;;;;;19.73;15.00;;;256.40;1484.80;;;;;;4974725;28;20082;-83
2022/03/12 13:30:35;;;;;;;22.05;14.27;;;256.80;1510.40;;;;;;4933758;28;20034;-81
2022/03/12 14:22:31;;;;;;;;;;;;;;;;;;;;;
2022/03/12 14:28:22;;;;;;;44.47;30.92;;;231.20;1510.40;;;;;;4817655;29;20049;-84
2022/03/12 15:05:00;;;;;;;;;;;;;;;;;;;;;
2022/03/12 15:11:28;;;;;;;45.92;27.40;;;153.70;1766.40;;;;;;4900517;29;20094;-83
2022/03/12 15:14:43;;;;;;;41.72;24.73;;;128.90;1766.40;;;;;;4850019;29;20053;-82
2022/03/12 15:21:04;;;;;;;36.83;22.50;;;128.70;1792.00;;;;;;4957701;29;20131;-81
2022/03/12 15:23:31;;;;;;;32.35;19.95;;;128.60;1792.00;;;;;;4916370;29;20270;-80
2022/03/12 15:26:21;;;;;;;33.58;20.35;;;128.50;1792.00;;;;;;4916978;29;20063;-83
2022/03/12 15:39:56;;;;;;;26.35;16.80;;;128.30;1817.60;;;;;;4917152;29;20034;-83
2022/03/12 16:17:09;;;;;;;;;;;;;;;;;;;;;
2022/03/12 16:26:04;;;;;;;55.80;31.27;;;102.80;1894.40;;;;;;4860033;29;20090;-84
2022/03/12 16:29:02;;;;;;;36.30;22.70;;;102.80;1920.00;;;;;;4844555;29;20050;-82
2022/03/12 16:31:54;;;;;;;39.22;25.38;;;102.80;1868.80;;;;;;4844355;29;20032;-83
2022/03/12 16:34:41;;;;;;;;;;;;;;;;;;;;;
2022/03/12 16:41:20;;;;;;;30.13;18.77;;;102.70;1868.80;;;;;;4860132;29;20371;-83
2022/03/12 16:44:01;;;;;;;33.15;20.50;;;102.60;1868.80;;;;;;4935052;29;20027;-84
2022/03/12 16:56:39;;;;;;;45.92;32.17;;;102.50;1894.40;;;;;;4955672;29;20042;-85
2022/03/12 17:31:35;;;;;;;67.63;40.67;;;77.40;1868.80;;;;;;4955176;29;20121;-85
2022/03/12 17:34:44;;;;;;;61.30;41.80;;;77.40;1894.40;;;;;;4938613;29;20059;-85
2022/03/12 17:54:01;;;;;;;42.45;26.45;;;77.20;1894.40;;;;;;4844525;29;20150;-89
2022/03/12 17:57:13;;;;;;;45.90;28.33;;;77.20;1894.40;;;;;;4900914;29;20114;-87
2022/03/12 18:03:01;;;;;;;44.20;28.67;;;77.10;1894.40;;;;;;4825492;29;20087;-85
2022/03/12 18:05:30;;;;;;;34.45;23.25;;;77.10;1920.00;;;;;;4819642;29;20034;-85
2022/03/12 18:07:58;;;;;;;40.13;24.95;;;77.10;1920.00;;;;;;4861032;29;20032;-84
2022/03/12 18:14:02;;;;;;;57.17;29.48;;;77.10;1920.00;;;;;;4899552;29;20032;-82
2022/03/12 18:16:28;;;;;;;36.85;23.52;;;77.00;1920.00;;;;;;4899536;29;20406;-82
2022/03/12 18:19:24;;;;;;;32.75;22.20;;;77.00;1920.00;;;;;;4899274;29;20024;-81
2022/03/12 18:21:53;;;;;;;72.25;34.00;;;77.00;1920.00;;;;;;4899786;29;20052;-86
2022/03/12 18:27:58;;;;;;;66.22;33.45;;;77.00;1945.60;;;;;;4958016;29;20054;-86
2022/03/12 18:30:27;;;;;;;94.32;40.55;;;77.00;1945.60;;;;;;4940192;29;20050;-87
2022/03/12 18:32:59;;;;;;;66.10;28.92;;;77.00;1945.60;;;;;;4941079;29;20026;-84
2022/03/12 18:36:05;;;;;;;81.15;33.90;;;77.00;1920.00;;;;;;4941737;29;20082;-83
2022/03/12 18:38:32;;;;;;;95.88;54.50;;;77.10;1894.40;;;;;;4941396;29;20025;-86
2022/03/12 18:41:18;;;;;;;83.22;50.30;;;77.00;1920.00;;;;;;4941234;29;20082;-83
2022/03/12 18:44:26;;;;;;;110.13;59.33;;;77.00;1920.00;;;;;;4940888;29;20035;-85
2022/03/12 18:47:07;;;;;;;105.15;57.95;;;77.00;1996.80;;;;;;4956453;28;20074;-86
2022/03/12 18:50:37;;;;;;;135.45;78.95;;;51.70;1945.60;;;;;;4941303;29;20365;-82
2022/03/12 18:54:04;;;;;;;;;;;;;;;;;;;;;
2022/03/12 18:56:51;;;;;;;131.98;79.82;;;76.90;2048.00;;;;;;4788034;30;20027;-81
2022/03/12 19:10:04;;;;;;;;;;;;;;;;;;;;;
2022/03/12 19:13:04;;;;;;;;;;;;;;;;;;;;;
2022/03/12 19:15:49;;;;;;;124.13;69.90;;;51.80;2176.00;;;;;;4823776;29;20030;-86
2022/03/12 19:25:13;;;;;;;160.57;92.90;;;51.60;2124.80;;;;;;4824345;29;20090;-80
2022/03/12 19:27:40;;;;;;;136.23;80.30;;;51.60;2176.00;;;;;;4927853;29;20047;-78
2022/03/12 19:30:07;;;;;;;114.07;64.03;;;51.20;2201.60;;;;;;4941743;29;20031;-83
2022/03/12 19:32:34;;;;;;;149.52;81.63;;;51.50;2201.60;;;;;;4941205;29;20023;-82
2022/03/12 19:35:01;;;;;;;158.27;87.18;;;51.40;2227.20;;;;;;4939795;29;20038;-79
2022/03/12 19:37:27;;;;;;;78.30;46.08;;;26.30;2201.60;;;;;;4939731;29;20029;-82
2022/03/12 19:39:53;;;;;;;78.13;48.63;;;26.50;2176.00;;;;;;4939940;29;20377;-82
2022/03/12 19:42:19;;;;;;;81.00;48.63;;;26.50;2176.00;;;;;;4939971;29;20034;-83
2022/03/12 19:44:45;;;;;;;88.15;50.17;;;26.50;2201.60;;;;;;4939709;29;20034;-83
2022/03/12 19:47:13;;;;;;;83.63;53.72;;;26.50;2201.60;;;;;;4939862;29;20067;-83
2022/03/12 19:49:39;;;;;;;74.75;44.42;;;26.50;2201.60;;;;;;4939568;29;20525;-81
2022/03/12 19:52:06;;;;;;;75.13;43.53;;;26.40;2201.60;;;;;;4939609;29;20039;-82
2022/03/12 19:54:33;;;;;;;78.70;45.58;;;26.40;2201.60;;;;;;4939676;29;20019;-80
2022/03/12 19:56:59;;;;;;;104.55;61.55;;;51.50;2227.20;;;;;;4939232;29;20042;-82
2022/03/12 19:59:27;;;;;;;118.32;67.07;;;26.20;2201.60;;;;;;4939471;29;20051;-84
2022/03/12 20:01:53;;;;;;;103.43;63.03;;;26.20;2201.60;;;;;;4939545;29;20414;-82
2022/03/12 20:04:18;;;;;;;111.07;64.78;;;26.10;2201.60;;;;;;4939381;29;20055;-84
2022/03/12 20:06:44;;;;;;;118.07;74.60;;;26.10;2201.60;;;;;;4939334;29;20106;-85
2022/03/12 20:09:11;;;;;;;146.50;85.45;;;26.00;2201.60;;;;;;4939555;29;20030;-82
2022/03/12 20:11:37;;;;;;;124.13;76.57;;;25.90;2201.60;;;;;;4939168;29;20023;-83
2022/03/12 20:14:06;;;;;;;118.57;75.28;;;25.90;2201.60;;;;;;4939340;29;20015;-82
2022/03/12 20:16:32;;;;;;;99.68;62.03;;;25.90;2201.60;;;;;;4939525;29;20031;-82
2022/03/12 20:18:59;;;;;;;81.85;53.40;;;25.90;2201.60;;;;;;4938826;29;20461;-80
2022/03/12 20:21:28;;;;;;;68.18;42.90;;;25.80;2201.60;;;;;;4939141;29;20083;-81
2022/03/12 20:23:57;;;;;;;75.13;47.97;;;25.70;2201.60;;;;;;4939272;29;20491;-83
2022/03/12 20:26:30;;;;;;;69.60;45.65;;;25.70;2201.60;;;;;;4938040;29;20039;-83
2022/03/12 20:28:56;;;;;;;76.55;47.78;;;25.60;2201.60;;;;;;4938656;29;20023;-84
2022/03/12 20:31:23;;;;;;;117.13;66.05;;;25.70;2201.60;;;;;;4939058;29;20082;-84
2022/03/12 20:33:52;;;;;;;137.02;74.45;;;25.70;2201.60;;;;;;4938950;29;20084;-84
2022/03/12 20:36:21;;;;;;;92.13;60.35;;;25.60;2201.60;;;;;;4939195;29;20057;-85
2022/03/12 20:38:47;;;;;;;73.65;48.05;;;25.60;2201.60;;;;;;4936191;29;20034;-83
2022/03/12 20:41:13;;;;;;;103.07;56.70;;;0.70;2201.60;;;;;;4939057;29;20027;-83
2022/03/12 20:43:39;;;;;;;96.35;59.60;;;0.80;2201.60;;;;;;4938868;29;20539;-83
2022/03/12 20:46:05;;;;;;;93.28;54.20;;;0.70;2201.60;;;;;;4938442;29;20121;-84
2022/03/12 20:49:41;;;;;;;106.15;67.15;;;0.70;2201.60;;;;;;4938748;29;20023;-86
2022/03/12 20:52:08;;;;;;;95.18;57.20;;;0.70;2201.60;;;;;;4860982;29;20033;-76
2022/03/12 20:54:34;;;;;;;118.78;65.22;;;0.70;2201.60;;;;;;4874992;28;20025;-79
2022/03/12 20:57:00;;;;;;;148.07;72.80;;;0.60;2201.60;;;;;;4963622;28;20020;-80
2022/03/12 20:59:26;;;;;;;119.60;66.10;;;0.60;2201.60;;;;;;4954697;28;20029;-83
2022/03/12 21:01:53;;;;;;;232.55;118.60;;;0.60;2201.60;;;;;;4939387;29;20079;-80
2022/03/12 21:04:20;;;;;;;148.65;83.00;;;0.60;2201.60;;;;;;4938892;29;20020;-81
2022/03/12 21:06:47;;;;;;;120.35;70.68;;;0.10;2201.60;;;;;;4938114;29;20151;-79
2022/03/12 21:09:16;;;;;;;101.65;58.33;;;0.50;2201.60;;;;;;4937752;29;20023;-80
2022/03/12 21:11:45;;;;;;;112.18;67.50;;;0.50;2201.60;;;;;;4938057;29;20086;-79
2022/03/12 21:14:13;;;;;;;120.65;67.85;;;0.50;2201.60;;;;;;4938260;29;20023;-81
2022/03/12 21:16:42;;;;;;;154.93;81.38;;;0.20;2201.60;;;;;;4938477;29;20026;-81
2022/03/12 21:19:08;;;;;;;155.77;87.30;;;0.30;2201.60;;;;;;4938011;29;20118;-82
2022/03/12 21:21:35;;;;;;;102.20;63.38;;;0.20;2201.60;;;;;;4938227;29;20063;-84
2022/03/12 21:24:01;;;;;;;90.70;58.00;;;0.30;2201.60;;;;;;4938374;29;20110;-80
2022/03/12 21:26:27;;;;;;;92.68;56.13;;;0.00;2201.60;;;;;;4938076;29;20071;-81
2022/03/12 21:28:54;;;;;;;104.43;58.05;;;0.10;2201.60;;;;;;4938008;29;20030;-80
2022/03/12 21:31:21;;;;;;;203.88;92.22;;;0.10;2201.60;;;;;;4938119;29;20027;-78
2022/03/12 21:33:47;;;;;;;167.00;83.90;;;0.10;2201.60;;;;;;4938245;29;20453;-84
2022/03/12 21:36:15;;;;;;;114.93;60.38;;;0.10;2201.60;;;;;;4938088;29;20059;-77
2022/03/12 21:38:43;;;;;;;91.72;55.13;;;12.90;2201.60;;;;;;4938284;29;20066;-82
2022/03/12 21:41:09;;;;;;;86.75;51.78;;;13.00;2201.60;;;;;;4938349;29;20031;-81
2022/03/12 21:43:39;;;;;;;154.00;79.22;;;12.90;2201.60;;;;;;4936182;29;20359;-81
2022/03/12 21:46:06;;;;;;;124.00;64.32;;;13.10;2201.60;;;;;;4938188;29;20110;-82
2022/03/12 21:48:42;;;;;;;73.45;42.78;;;13.00;2201.60;;;;;;4938235;29;20082;-80
2022/03/12 21:51:10;;;;;;;119.35;71.07;;;13.00;2201.60;;;;;;4938003;29;20023;-80
2022/03/12 21:54:06;;;;;;;99.88;59.75;;;13.10;2201.60;;;;;;4938050;29;20024;-85
2022/03/12 21:56:45;;;;;;;83.18;54.33;;;13.30;2201.60;;;;;;4933303;28;20104;-81
2022/03/12 21:59:38;;;;;;;93.45;60.70;;;13.40;2201.60;;;;;;4957412;28;20019;-85
2022/03/12 22:02:15;;;;;;;87.60;54.55;;;13.40;2201.60;;;;;;4896007;29;20033;-82
2022/03/12 22:05:01;;;;;;;82.85;54.50;;;13.30;2201.60;;;;;;4895985;29;20051;-85
2022/03/12 22:07:47;;;;;;;68.50;42.92;;;13.20;2201.60;;;;;;4954658;28;20062;-86
2022/03/12 23:54:42;;;;;;;62.35;34.85;;;38.80;2201.60;;;;;;4909386;29;20094;-77
2022/03/12 23:57:09;;;;;;;72.63;41.97;;;38.80;2201.60;;;;;;4890160;29;20035;-77
2022/03/12 23:59:44;;;;;;;56.10;31.73;;;38.80;2201.60;;;;;;4882823;29;20046;-78
